Moycullen, Ireland
Current Conditions -  °F | °C
As of 8:30 AM on Wednesday 22 Oct 2014 (Local Time) from EIKN Reporting Station
Broken Clouds Broken Clouds  
Wind Chill: 43°   Ceiling: 5000
Heat Index: 48°   Visibility: 6mi
Dew Point: 46°   Wind: 12mph
Humidity: 93%   Direction: 220°SW
Pressure: 30.15"   Gusts: NA
Location:  53.34°N, 9.18°W
Report Text: EIKN 220830Z 22010KT 9999 FEW015 BKN050 BKN090 09/08 Q1021 NOSIG
Loading
Personal Weather Stations






























Interactive Weather Map
Tropical Storm Tracking
New forecast layout! Learn more

10-Day Weather Forecast

Advertisements
Track Severe Weather on mobile